Time;durP1;ratioP1;P1;durP2;ratioP2;P2;SDS_P1;SDS_P2;PMS_P1;PMS_P2;Temp;Humidity;BMP_temperature;BMP_pressure;BME280_temperature;BME280_humidity;BME280_pressure;Samples;Min_cycle;Max_cycle;Signal;HPM_P1;HPM_P2
2023/04/22 00:01:46;;;;;;;3.43;3.13;;;;;;;15.85;41.46;100896.22;4954072;28;97565;-49
2023/04/22 00:04:12;;;;;;;3.97;3.63;;;;;;;15.81;41.21;100898.53;4955339;28;97235;-49
2023/04/22 00:06:37;;;;;;;4.60;4.10;;;;;;;15.75;41.44;100895.81;4956449;28;100271;-49
2023/04/22 00:09:02;;;;;;;3.90;3.60;;;;;;;15.72;41.48;100893.34;4954823;28;101614;-49
2023/04/22 00:11:28;;;;;;;4.77;4.13;;;;;;;15.72;41.44;100902.44;4956183;28;97415;-49
2023/04/22 00:13:53;;;;;;;4.17;3.87;;;;;;;15.68;41.62;100890.13;4953540;28;96881;-49
2023/04/22 00:16:19;;;;;;;3.30;2.90;;;;;;;15.67;41.60;100872.72;4953763;28;96732;-49
2023/04/22 00:18:44;;;;;;;3.60;3.30;;;;;;;15.69;41.54;100872.19;4958821;28;96709;-49
2023/04/22 00:21:09;;;;;;;4.13;3.80;;;;;;;15.63;41.59;100866.72;4955158;28;97100;-49
2023/04/22 00:23:35;;;;;;;3.70;3.40;;;;;;;15.63;41.60;100868.72;4955796;28;97210;-49
2023/04/22 00:26:00;;;;;;;4.07;3.40;;;;;;;15.66;41.61;100870.47;4954995;28;107600;-49
2023/04/22 00:28:26;;;;;;;4.63;3.73;;;;;;;15.65;41.58;100858.63;4957371;28;97011;-49
2023/04/22 00:30:51;;;;;;;3.47;3.17;;;;;;;15.64;41.84;100864.69;4952078;28;97100;-49
2023/04/22 00:33:16;;;;;;;5.70;3.70;;;;;;;15.65;41.92;100863.41;4957333;28;97446;-48
2023/04/22 00:35:42;;;;;;;4.37;3.67;;;;;;;15.65;41.68;100858.63;4955117;28;97245;-49
2023/04/22 00:38:07;;;;;;;4.40;4.00;;;;;;;15.64;41.82;100857.09;4954656;28;96896;-49
2023/04/22 00:40:32;;;;;;;3.53;3.33;;;;;;;15.63;41.63;100855.63;4956301;28;100149;-49
2023/04/22 00:42:59;;;;;;;4.47;3.80;;;;;;;15.63;41.88;100857.63;4952122;28;104632;-49
2023/04/22 00:45:25;;;;;;;3.90;3.60;;;;;;;15.60;41.72;100853.13;4953026;28;97214;-49
2023/04/22 00:47:51;;;;;;;4.40;3.57;;;;;;;15.59;41.81;100846.09;4955064;28;96763;-49
2023/04/22 00:50:17;;;;;;;4.10;3.80;;;;;;;15.54;41.80;100850.44;4954754;28;97269;-49
2023/04/22 00:52:42;;;;;;;3.70;3.40;;;;;;;15.53;41.85;100848.91;4953683;28;96717;-48
2023/04/22 00:55:08;;;;;;;4.93;3.40;;;;;;;15.49;41.97;100847.72;4957227;28;97095;-49
2023/04/22 00:57:34;;;;;;;3.77;3.40;;;;;;;15.47;41.95;100836.38;4956020;28;96742;-49
2023/04/22 01:00:00;;;;;;;5.00;3.97;;;;;;;15.45;42.19;100839.69;4956229;28;97624;-49
2023/04/22 01:02:25;;;;;;;4.27;3.83;;;;;;;15.41;42.06;100835.69;4957339;28;97512;-49
2023/04/22 01:04:53;;;;;;;3.70;3.50;;;;;;;15.43;42.08;100833.91;4952042;28;97852;-49
2023/04/22 01:07:19;;;;;;;3.60;2.83;;;;;;;15.40;42.40;100840.47;4959523;28;97298;-49
2023/04/22 01:09:44;;;;;;;4.27;3.90;;;;;;;15.39;42.22;100827.13;4954256;28;97316;-49
2023/04/22 01:12:10;;;;;;;4.23;3.83;;;;;;;15.38;42.11;100833.94;4953862;28;97494;-49
2023/04/22 01:14:36;;;;;;;3.63;3.30;;;;;;;15.36;42.09;100828.91;4954869;28;97094;-49
2023/04/22 01:17:01;;;;;;;3.90;3.60;;;;;;;15.32;42.27;100830.47;4954014;28;97097;-49
2023/04/22 01:19:28;;;;;;;4.43;3.87;;;;;;;15.29;42.25;100829.50;4955490;28;97537;-49
2023/04/22 01:21:54;;;;;;;4.00;3.37;;;;;;;15.29;42.37;100820.47;4952702;28;97239;-49
2023/04/22 01:24:20;;;;;;;4.10;3.70;;;;;;;15.29;42.54;100826.00;4952091;28;97206;-49
2023/04/22 01:26:46;;;;;;;4.03;3.73;;;;;;;15.27;42.53;100828.50;4954020;28;96815;-48
2023/04/22 01:29:13;;;;;;;5.13;3.90;;;;;;;15.29;42.53;100817.69;4957249;28;97579;-49
2023/04/22 01:31:38;;;;;;;3.43;3.20;;;;;;;15.31;42.40;100823.44;4954653;28;97020;-49
2023/04/22 01:34:04;;;;;;;4.50;4.10;;;;;;;15.25;42.53;100820.72;4955261;28;102321;-49
2023/04/22 01:36:31;;;;;;;3.93;3.50;;;;;;;15.16;42.54;100826.63;4952846;28;97015;-49
2023/04/22 01:38:57;;;;;;;3.83;3.50;;;;;;;15.13;42.66;100819.34;4953556;28;97333;-49
2023/04/22 01:41:23;;;;;;;7.43;4.03;;;;;;;15.09;42.71;100821.66;4952411;28;99192;-49
2023/04/22 01:43:51;;;;;;;4.10;3.80;;;;;;;15.08;42.77;100816.63;4954438;28;97038;-48
2023/04/22 01:46:16;;;;;;;5.17;4.17;;;;;;;15.05;42.83;100821.19;4957886;28;97359;-49
2023/04/22 01:48:42;;;;;;;3.93;3.63;;;;;;;15.06;42.72;100810.84;4954386;28;96744;-48
2023/04/22 01:51:07;;;;;;;3.60;3.30;;;;;;;15.01;42.82;100818.72;4953859;28;98034;-49
2023/04/22 01:53:34;;;;;;;4.47;4.10;;;;;;;14.98;42.81;100832.84;4955070;28;97574;-49
2023/04/22 01:56:00;;;;;;;4.53;4.07;;;;;;;15.02;42.90;100819.47;4955091;28;97192;-49
2023/04/22 01:58:28;;;;;;;8.07;4.40;;;;;;;14.97;42.88;100812.72;4954874;28;96888;-49
2023/04/22 02:00:53;;;;;;;4.23;3.90;;;;;;;14.94;43.03;100821.28;4951038;28;97316;-49
2023/04/22 02:03:19;;;;;;;3.50;3.30;;;;;;;14.94;43.01;100815.75;4952583;28;97406;-49
2023/04/22 02:05:44;;;;;;;4.07;3.67;;;;;;;14.94;43.00;100804.66;4952633;28;96954;-49
2023/04/22 02:08:10;;;;;;;5.40;4.30;;;;;;;14.89;43.03;100797.94;4953756;28;97029;-48
2023/04/22 02:10:35;;;;;;;6.87;5.23;;;;;;;14.83;43.27;100813.84;4953078;28;98937;-49
2023/04/22 02:13:00;;;;;;;6.80;5.60;;;;;;;14.85;43.30;100811.31;4954585;28;99545;-49
2023/04/22 02:15:26;;;;;;;5.27;4.77;;;;;;;14.89;43.17;100811.78;4955041;28;96914;-49
2023/04/22 02:17:51;;;;;;;4.33;3.93;;;;;;;14.88;43.13;100815.81;4952921;28;96700;-49
2023/04/22 02:20:17;;;;;;;4.87;4.40;;;;;;;14.85;43.16;100819.59;4952575;28;98785;-49
2023/04/22 02:22:43;;;;;;;5.00;4.40;;;;;;;14.84;43.22;100815.34;4950576;28;96771;-48
2023/04/22 02:25:11;;;;;;;4.30;4.00;;;;;;;14.83;43.27;100811.06;4951599;28;96820;-49
2023/04/22 02:27:36;;;;;;;5.43;4.70;;;;;;;14.83;43.37;100818.66;4951649;28;97215;-49
2023/04/22 02:30:02;;;;;;;4.90;4.40;;;;;;;14.79;43.19;100807.06;4950229;28;98773;-48
2023/04/22 02:32:28;;;;;;;4.13;3.80;;;;;;;14.75;43.34;100812.91;4954300;28;97723;-49
2023/04/22 02:34:53;;;;;;;4.83;4.43;;;;;;;14.72;43.44;100813.94;4950553;28;97222;-49
2023/04/22 02:37:19;;;;;;;4.00;3.60;;;;;;;14.71;43.46;100803.38;4951923;28;96670;-49
2023/04/22 02:39:44;;;;;;;6.53;4.53;;;;;;;14.69;43.45;100805.91;4953679;28;97509;-49
2023/04/22 02:42:10;;;;;;;4.07;3.77;;;;;;;14.67;43.63;100806.44;4954610;28;97543;-49
2023/04/22 02:44:35;;;;;;;5.93;4.20;;;;;;;14.61;43.59;100799.47;4952725;28;96921;-49
2023/04/22 02:47:02;;;;;;;4.73;4.33;;;;;;;14.57;43.56;100802.50;4950994;28;97082;-49
2023/04/22 02:49:28;;;;;;;8.03;4.40;;;;;;;14.56;43.51;100797.47;4952366;28;97322;-49
2023/04/22 02:51:53;;;;;;;7.27;4.40;;;;;;;14.49;43.70;100787.72;4952235;28;97467;-49
2023/04/22 02:54:18;;;;;;;4.67;4.27;;;;;;;14.47;44.02;100793.03;4952918;28;97265;-49
2023/04/22 02:56:44;;;;;;;4.53;4.13;;;;;;;14.41;44.00;100784.00;4953420;28;99315;-49
2023/04/22 02:59:10;;;;;;;6.80;4.57;;;;;;;14.37;43.95;100788.31;4957851;28;98640;-49
2023/04/22 03:01:35;;;;;;;4.27;3.80;;;;;;;14.32;43.95;100781.56;4953975;28;96784;-49
2023/04/22 03:04:00;;;;;;;5.30;4.80;;;;;;;14.34;44.04;100779.03;4952528;28;97433;-49
2023/04/22 03:06:26;;;;;;;4.00;3.60;;;;;;;14.36;44.03;100779.25;4952017;28;97224;-49
2023/04/22 03:08:51;;;;;;;4.60;4.20;;;;;;;14.36;44.03;100775.75;4954194;28;96955;-49
2023/04/22 03:11:16;;;;;;;4.27;3.90;;;;;;;14.31;44.10;100774.50;4951746;28;97327;-49
2023/04/22 03:13:42;;;;;;;4.87;4.40;;;;;;;14.30;44.04;100775.78;4953291;28;96762;-49
2023/04/22 03:16:07;;;;;;;4.83;4.40;;;;;;;14.32;44.17;100784.34;4950979;28;97866;-49
2023/04/22 03:18:33;;;;;;;5.97;4.73;;;;;;;14.29;44.41;100774.28;4953088;28;97878;-49
2023/04/22 03:20:59;;;;;;;5.43;3.93;;;;;;;14.31;44.35;100779.31;4952624;28;105836;-49
2023/04/22 03:23:25;;;;;;;4.90;4.40;;;;;;;14.27;44.31;100771.25;4946312;28;97350;-49
2023/04/22 03:25:50;;;;;;;4.73;4.37;;;;;;;14.27;44.31;100776.78;4953457;28;97424;-49
2023/04/22 03:28:16;;;;;;;5.13;4.63;;;;;;;14.27;44.59;100776.78;4951419;28;97074;-48
2023/04/22 03:30:41;;;;;;;5.43;4.83;;;;;;;14.27;44.45;100774.03;4951557;28;103458;-49
2023/04/22 03:33:06;;;;;;;9.80;4.10;;;;;;;14.26;44.48;100770.50;4952394;28;101153;-49
2023/04/22 03:35:31;;;;;;;8.03;4.57;;;;;;;14.21;44.40;100770.53;4952102;28;97287;-49
2023/04/22 03:37:57;;;;;;;6.40;4.43;;;;;;;14.18;44.57;100766.78;4951961;28;96892;-49
2023/04/22 03:40:22;;;;;;;5.37;4.07;;;;;;;14.14;44.51;100763.56;4956794;28;107644;-49
2023/04/22 03:42:47;;;;;;;4.70;4.20;;;;;;;14.15;44.44;100764.31;4956125;28;96884;-48
2023/04/22 03:45:13;;;;;;;5.10;4.60;;;;;;;14.10;44.59;100763.09;4958298;28;96821;-49
2023/04/22 03:47:38;;;;;;;5.20;4.70;;;;;;;14.10;44.59;100768.63;4956216;28;97632;-49
2023/04/22 03:50:04;;;;;;;4.93;4.43;;;;;;;14.14;44.92;100762.78;4955762;28;97618;-49
2023/04/22 03:52:29;;;;;;;4.60;4.20;;;;;;;14.21;44.71;100767.78;4955733;28;97452;-49
2023/04/22 03:54:55;;;;;;;4.73;4.33;;;;;;;14.22;44.73;100747.88;4958754;28;102325;-49
2023/04/22 03:57:20;;;;;;;5.23;4.10;;;;;;;14.24;44.47;100755.69;4958101;28;96796;-48
2023/04/22 03:59:45;;;;;;;6.40;4.53;;;;;;;14.20;44.80;100760.72;4955786;28;108159;-49
2023/04/22 04:02:11;;;;;;;4.50;4.07;;;;;;;14.20;44.99;100769.03;4955590;28;98897;-49
2023/04/22 04:04:36;;;;;;;7.20;3.87;;;;;;;14.19;44.80;100759.25;4956862;28;97453;-49
2023/04/22 04:07:02;;;;;;;5.33;4.30;;;;;;;14.13;44.96;100764.06;4955490;28;97211;-48
2023/04/22 04:09:27;;;;;;;4.27;3.87;;;;;;;14.06;45.17;100762.63;4956058;28;97179;-49
2023/04/22 04:11:52;;;;;;;4.93;4.47;;;;;;;14.02;45.00;100762.09;4955440;28;100043;-48
2023/04/22 04:14:18;;;;;;;5.10;4.20;;;;;;;13.97;45.11;100765.69;4949813;28;96846;-49
2023/04/22 04:16:43;;;;;;;4.77;4.17;;;;;;;13.92;45.43;100760.16;4955259;28;102865;-49
2023/04/22 04:19:09;;;;;;;6.33;4.47;;;;;;;13.90;45.46;100771.75;4955581;28;97064;-49
2023/04/22 04:21:35;;;;;;;4.97;4.47;;;;;;;13.88;45.41;100771.53;4956786;28;96866;-49
2023/04/22 04:24:01;;;;;;;7.90;4.40;;;;;;;13.89;45.29;100777.81;4954620;28;97141;-49
2023/04/22 04:26:27;;;;;;;5.97;4.57;;;;;;;13.81;45.50;100774.06;4956360;28;97206;-49
2023/04/22 04:28:53;;;;;;;5.60;4.40;;;;;;;13.79;45.48;100771.06;4953669;28;97236;-49
2023/04/22 04:31:18;;;;;;;5.40;4.57;;;;;;;13.78;45.53;100777.88;4956270;28;96757;-49
2023/04/22 04:33:45;;;;;;;4.27;3.90;;;;;;;13.73;45.49;100773.13;4955837;28;98581;-49
2023/04/22 04:36:11;;;;;;;4.53;3.77;;;;;;;13.70;45.54;100774.88;4954494;28;97861;-49
2023/04/22 04:38:36;;;;;;;5.43;4.60;;;;;;;13.72;45.58;100771.59;4955400;28;97408;-49
2023/04/22 04:41:02;;;;;;;6.57;4.40;;;;;;;13.72;45.65;100766.06;4954367;28;97104;-49
2023/04/22 04:43:28;;;;;;;4.93;4.20;;;;;;;13.66;45.77;100766.09;4955386;28;97421;-49
2023/04/22 04:45:53;;;;;;;4.77;4.37;;;;;;;13.69;45.48;100756.03;4955986;28;96776;-49
2023/04/22 04:48:18;;;;;;;5.33;4.83;;;;;;;13.66;45.85;100757.06;4954053;28;97440;-49
2023/04/22 04:50:44;;;;;;;4.63;4.33;;;;;;;13.64;45.95;100749.28;4957545;28;97316;-49
2023/04/22 04:53:11;;;;;;;4.20;3.80;;;;;;;13.62;45.89;100754.56;4956319;28;96875;-49
2023/04/22 04:55:36;;;;;;;6.33;4.67;;;;;;;13.59;46.12;100741.00;4955696;28;97517;-49
2023/04/22 04:58:02;;;;;;;4.50;4.10;;;;;;;13.63;46.04;100747.78;4953709;28;97085;-49
2023/04/22 05:00:27;;;;;;;5.43;3.87;;;;;;;13.69;46.06;100756.03;4955288;28;97089;-49
2023/04/22 05:02:53;;;;;;;4.97;4.47;;;;;;;13.74;46.12;100756.00;4959611;28;96856;-49
2023/04/22 05:05:18;;;;;;;4.23;3.83;;;;;;;13.78;46.09;100758.50;4958615;28;102317;-49
2023/04/22 05:07:43;;;;;;;5.37;4.87;;;;;;;13.83;46.27;100755.69;4953734;28;97558;-49
2023/04/22 05:10:09;;;;;;;6.83;4.67;;;;;;;13.92;46.12;100751.88;4955953;28;97476;-49
2023/04/22 05:12:35;;;;;;;5.70;4.60;;;;;;;13.99;46.09;100745.81;4952956;28;96939;-48
2023/04/22 05:15:00;;;;;;;7.40;5.20;;;;;;;14.05;45.99;100744.50;4950429;28;97431;-49
2023/04/22 05:17:26;;;;;;;9.60;4.70;;;;;;;14.14;46.18;100749.72;4960566;28;97251;-49
2023/04/22 05:19:51;;;;;;;5.37;4.87;;;;;;;14.25;46.11;100759.94;4956407;28;97108;-48
2023/04/22 05:22:17;;;;;;;5.20;4.70;;;;;;;14.33;46.19;100755.38;4954065;28;97458;-49
2023/04/22 05:24:42;;;;;;;7.57;4.47;;;;;;;14.47;45.84;100750.72;4953141;28;97326;-49
2023/04/22 05:27:08;;;;;;;4.77;4.37;;;;;;;14.58;45.83;100751.41;4953496;28;97111;-49
2023/04/22 05:29:33;;;;;;;5.03;4.07;;;;;;;14.69;45.85;100750.53;4953822;28;96712;-49
2023/04/22 05:31:58;;;;;;;6.60;4.90;;;;;;;14.75;45.90;100749.22;4954597;28;98192;-48
2023/04/22 05:34:24;;;;;;;6.00;4.60;;;;;;;14.78;45.83;100752.97;4952024;28;97054;-49
2023/04/22 05:36:49;;;;;;;7.20;5.47;;;;;;;14.80;45.85;100748.41;4956773;28;97322;-49
2023/04/22 05:39:15;;;;;;;4.60;4.23;;;;;;;14.83;45.79;100750.13;4951972;28;97466;-48
2023/04/22 05:41:40;;;;;;;5.20;4.23;;;;;;;14.85;45.80;100753.13;4953627;28;97181;-49
2023/04/22 05:44:06;;;;;;;4.30;4.00;;;;;;;14.87;45.91;100750.59;4955128;28;97400;-48
2023/04/22 05:46:32;;;;;;;6.37;5.17;;;;;;;14.94;46.09;100763.09;4953668;28;97985;-49
2023/04/22 05:48:57;;;;;;;4.67;4.23;;;;;;;15.01;46.08;100765.31;4953184;28;96883;-49
2023/04/22 05:51:23;;;;;;;4.07;3.70;;;;;;;15.10;45.81;100762.19;4953432;28;99937;-49
2023/04/22 05:53:49;;;;;;;11.33;4.40;;;;;;;15.15;45.87;100750.31;4952891;28;97316;-49
2023/04/22 05:56:15;;;;;;;5.10;4.70;;;;;;;15.17;45.88;100752.53;4954889;28;97545;-49
2023/04/22 05:58:40;;;;;;;5.77;4.60;;;;;;;15.19;46.06;100753.53;4956525;28;97181;-48
2023/04/22 06:01:06;;;;;;;4.57;4.07;;;;;;;15.23;45.93;100747.69;4953229;28;96809;-49
2023/04/22 06:03:31;;;;;;;4.73;4.37;;;;;;;15.32;45.66;100750.84;4953451;28;97763;-49
2023/04/22 06:05:57;;;;;;;4.60;4.10;;;;;;;15.40;45.63;100745.44;4952851;28;101584;-49
2023/04/22 06:08:22;;;;;;;5.17;4.53;;;;;;;15.47;45.78;100756.72;4954531;28;97051;-49
2023/04/22 06:10:48;;;;;;;4.87;4.37;;;;;;;15.56;45.73;100752.84;4953634;28;96978;-49
2023/04/22 06:13:13;;;;;;;6.83;4.57;;;;;;;15.58;45.74;100753.81;4955338;28;97205;-49
2023/04/22 06:15:39;;;;;;;4.43;4.00;;;;;;;15.62;45.81;100747.97;4952748;28;97054;-49
2023/04/22 06:18:04;;;;;;;6.43;4.53;;;;;;;15.65;45.67;100753.22;4952057;28;97529;-49
2023/04/22 06:20:31;;;;;;;4.70;4.30;;;;;;;15.73;45.55;100751.34;4955576;28;97522;-49
2023/04/22 06:22:57;;;;;;;5.57;3.83;;;;;;;15.81;45.54;100753.53;4954920;28;97432;-49
2023/04/22 06:25:22;;;;;;;4.03;3.67;;;;;;;15.82;45.72;100747.44;4955070;28;97248;-49
2023/04/22 06:27:48;;;;;;;4.63;4.23;;;;;;;15.86;45.61;100747.88;4953696;28;97243;-49
2023/04/22 06:30:13;;;;;;;4.23;3.83;;;;;;;15.93;45.71;100757.63;4953478;28;97481;-49
2023/04/22 06:32:39;;;;;;;6.13;4.00;;;;;;;15.97;45.52;100760.84;4954493;28;97350;-48
2023/04/22 06:35:05;;;;;;;5.03;3.80;;;;;;;16.01;45.58;100752.97;4953129;28;97490;-49
2023/04/22 06:37:30;;;;;;;3.93;3.53;;;;;;;16.10;45.67;100749.78;4955298;28;97081;-49
2023/04/22 06:39:56;;;;;;;5.43;4.17;;;;;;;16.18;45.49;100751.44;4953326;28;96720;-49
2023/04/22 06:42:21;;;;;;;3.97;3.57;;;;;;;16.25;45.51;100748.03;4952009;28;97676;-49
2023/04/22 06:44:46;;;;;;;5.07;3.77;;;;;;;16.32;45.23;100741.88;4953725;28;97745;-49
2023/04/22 06:47:12;;;;;;;10.03;4.20;;;;;;;16.43;45.42;100750.00;4953675;28;96871;-49
2023/04/22 06:49:38;;;;;;;3.83;3.50;;;;;;;16.54;45.46;100729.66;4952278;28;97087;-49
2023/04/22 06:52:04;;;;;;;3.57;3.27;;;;;;;16.63;45.60;100734.03;4951304;28;97035;-49
2023/04/22 06:54:30;;;;;;;4.03;3.63;;;;;;;16.77;45.29;100735.56;4954075;28;97752;-49
2023/04/22 06:56:56;;;;;;;3.97;3.60;;;;;;;16.88;45.37;100729.81;4953862;28;97210;-49
2023/04/22 06:59:21;;;;;;;4.50;4.20;;;;;;;16.99;45.16;100729.59;4951802;28;97603;-49
2023/04/22 07:01:47;;;;;;;5.03;3.90;;;;;;;17.11;45.23;100728.84;4952512;28;97588;-49
2023/04/22 07:04:12;;;;;;;4.00;3.70;;;;;;;17.21;45.15;100721.53;4955653;28;97584;-49
2023/04/22 07:06:38;;;;;;;4.60;3.90;;;;;;;17.35;45.08;100721.53;4953584;28;97206;-49
2023/04/22 07:09:03;;;;;;;3.43;3.10;;;;;;;17.51;45.09;100723.25;4955611;28;97128;-49
2023/04/22 07:11:30;;;;;;;3.63;3.33;;;;;;;17.64;44.76;100732.31;4953474;28;97682;-49
2023/04/22 07:13:55;;;;;;;3.40;3.10;;;;;;;17.80;44.86;100730.44;4956736;28;97745;-49
2023/04/22 07:16:21;;;;;;;3.73;3.33;;;;;;;17.92;44.65;100720.53;4956570;28;96859;-49
2023/04/22 07:18:46;;;;;;;3.90;3.60;;;;;;;18.08;44.57;100727.00;4957223;28;97229;-49
2023/04/22 07:21:12;;;;;;;3.70;3.30;;;;;;;18.22;44.42;100731.19;4957418;28;97306;-49
2023/04/22 07:23:37;;;;;;;4.37;3.10;;;;;;;18.40;44.33;100730.25;4954588;28;101023;-49
2023/04/22 07:26:03;;;;;;;6.27;3.30;;;;;;;18.56;44.23;100726.31;4954786;28;97069;-49
2023/04/22 07:28:28;;;;;;;6.93;3.97;;;;;;;18.74;44.14;100724.59;4953980;28;97216;-49
2023/04/22 07:30:54;;;;;;;4.63;3.67;;;;;;;18.90;44.22;100726.16;4958463;28;97482;-49
2023/04/22 07:33:19;;;;;;;3.23;3.03;;;;;;;19.04;43.96;100724.78;4956959;28;96985;-49
2023/04/22 07:35:46;;;;;;;3.23;2.93;;;;;;;19.17;43.62;100714.25;4959161;28;97509;-49
2023/04/22 07:38:11;;;;;;;4.50;3.20;;;;;;;19.32;43.38;100722.69;4954923;28;96925;-49
2023/04/22 07:40:36;;;;;;;3.80;3.20;;;;;;;19.45;43.53;100721.84;4953965;28;96780;-49
2023/04/22 07:43:02;;;;;;;3.10;2.80;;;;;;;19.58;43.43;100718.16;4958126;28;97842;-49
2023/04/22 07:45:27;;;;;;;3.33;3.13;;;;;;;19.73;43.14;100718.19;4952354;28;97153;-49
2023/04/22 07:47:53;;;;;;;4.70;3.13;;;;;;;19.85;42.89;100720.09;4956932;28;97279;-49
2023/04/22 07:50:18;;;;;;;3.40;3.10;;;;;;;19.96;42.81;100710.63;4956511;28;97139;-49
2023/04/22 07:52:43;;;;;;;3.77;3.43;;;;;;;20.07;42.56;100711.00;4957689;28;100269;-49
2023/04/22 07:55:09;;;;;;;4.60;3.20;;;;;;;20.18;42.31;100718.28;4958766;28;99471;-49
2023/04/22 07:57:37;;;;;;;2.97;2.60;;;;;;;20.29;42.69;100712.34;4957079;28;97312;-49
2023/04/22 08:00:07;;;;;;;2.93;2.73;;;;;;;20.43;42.31;100708.06;4956987;28;97370;-49
2023/04/22 08:02:33;;;;;;;3.47;3.17;;;;;;;20.52;42.31;100704.69;4953369;28;97773;-49
2023/04/22 08:04:58;;;;;;;2.73;2.53;;;;;;;20.61;42.25;100704.13;4958957;28;97144;-49
2023/04/22 08:07:24;;;;;;;5.23;3.10;;;;;;;20.67;42.11;100704.69;4958671;28;97160;-49
2023/04/22 08:09:50;;;;;;;3.53;3.23;;;;;;;20.75;42.04;100693.50;4956259;28;97430;-49
2023/04/22 08:12:16;;;;;;;4.07;3.67;;;;;;;20.75;42.27;100702.59;4956853;28;97200;-49
2023/04/22 08:14:41;;;;;;;3.00;2.77;;;;;;;20.78;42.26;100703.53;4955523;28;96891;-49
2023/04/22 08:17:06;;;;;;;4.13;2.50;;;;;;;20.82;42.03;100693.47;4958282;28;97362;-49
2023/04/22 08:19:32;;;;;;;4.50;2.97;;;;;;;20.89;41.80;100698.31;4956365;28;97189;-49
2023/04/22 08:21:57;;;;;;;6.40;3.00;;;;;;;20.93;41.74;100706.28;4955193;28;107084;-49
2023/04/22 08:24:22;;;;;;;3.13;2.27;;;;;;;20.98;41.94;100710.94;4953664;28;97096;-49
2023/04/22 08:26:48;;;;;;;3.23;3.00;;;;;;;21.07;42.07;100712.44;4959088;28;98511;-49
2023/04/22 08:29:13;;;;;;;4.80;3.50;;;;;;;21.23;41.88;100699.91;4956464;28;97000;-49
2023/04/22 08:31:38;;;;;;;3.00;2.80;;;;;;;21.37;41.81;100701.88;4956893;28;97141;-49
2023/04/22 08:34:04;;;;;;;2.77;2.53;;;;;;;21.46;41.54;100697.75;4957534;28;97150;-49
2023/04/22 08:36:30;;;;;;;2.60;2.40;;;;;;;21.50;41.38;100700.88;4954199;28;97418;-50
2023/04/22 08:38:56;;;;;;;3.17;2.70;;;;;;;21.64;41.43;100696.53;4957596;28;97343;-49
2023/04/22 08:41:23;;;;;;;3.97;2.27;;;;;;;21.78;41.18;100699.78;4957093;28;97563;-49
2023/04/22 08:43:49;;;;;;;2.80;2.37;;;;;;;21.99;41.24;100697.44;4954542;28;97152;-49
2023/04/22 08:46:16;;;;;;;2.80;2.47;;;;;;;22.18;40.71;100701.22;4954529;28;96881;-49
2023/04/22 08:48:41;;;;;;;2.70;2.50;;;;;;;22.39;40.57;100698.81;4956633;28;97405;-49
2023/04/22 08:51:07;;;;;;;5.30;2.50;;;;;;;22.61;40.27;100696.38;4959801;28;97600;-49
2023/04/22 08:53:33;;;;;;;2.87;2.57;;;;;;;22.77;40.20;100692.13;4954875;28;97268;-50
2023/04/22 08:55:59;;;;;;;2.50;2.30;;;;;;;22.98;40.02;100692.44;4954810;28;97387;-50
2023/04/22 08:58:25;;;;;;;2.60;2.40;;;;;;;23.12;39.60;100690.78;4951577;28;97468;-50
2023/04/22 09:00:51;;;;;;;2.53;2.33;;;;;;;23.30;39.54;100692.25;4955493;28;96786;-50
2023/04/22 09:03:17;;;;;;;2.43;2.23;;;;;;;23.43;39.29;100691.19;4955433;28;97425;-49
2023/04/22 09:05:44;;;;;;;4.67;2.03;;;;;;;23.64;39.14;100686.56;4956210;28;96738;-49
2023/04/22 09:08:10;;;;;;;2.10;2.00;;;;;;;23.81;38.85;100680.88;4953086;28;97070;-50
2023/04/22 09:10:37;;;;;;;2.97;2.27;;;;;;;24.02;38.61;100683.22;4958817;28;96911;-50
2023/04/22 09:13:04;;;;;;;1.80;1.70;;;;;;;24.11;38.67;100679.72;4957203;28;97273;-50
2023/04/22 09:15:30;;;;;;;1.93;1.83;;;;;;;24.23;38.54;100675.00;4957076;28;97267;-50
2023/04/22 09:17:57;;;;;;;3.37;1.90;;;;;;;24.35;37.98;100678.00;4951234;28;97920;-50
2023/04/22 09:20:27;;;;;;;1.90;1.80;;;;;;;24.47;37.46;100673.28;4954328;28;97384;-50
2023/04/22 09:22:54;;;;;;;2.10;1.90;;;;;;;24.65;38.20;100673.91;4955758;28;97980;-50
2023/04/22 09:25:24;;;;;;;2.07;1.97;;;;;;;24.74;37.82;100670.34;4955354;28;97097;-50
2023/04/22 09:27:50;;;;;;;2.80;2.17;;;;;;;24.81;38.01;100663.88;4955069;28;97540;-49
2023/04/22 09:30:18;;;;;;;1.80;1.70;;;;;;;24.92;37.76;100668.91;4955065;28;97332;-50
2023/04/22 09:33:05;;;;;;;2.40;2.20;;;;;;;25.01;35.80;100660.44;4956120;28;96729;-50
2023/04/22 09:35:31;;;;;;;1.93;1.83;;;;;;;25.08;37.28;100667.25;4953514;28;97190;-50
2023/04/22 09:37:58;;;;;;;4.40;1.93;;;;;;;25.24;37.40;100660.00;4954361;28;97382;-50
2023/04/22 09:40:25;;;;;;;2.33;1.90;;;;;;;25.32;36.95;100660.56;4954488;28;97155;-50
2023/04/22 09:42:55;;;;;;;2.00;1.90;;;;;;;25.43;36.84;100659.97;4952540;28;97168;-50
2023/04/22 09:45:37;;;;;;;2.10;1.80;;;;;;;25.60;36.21;100656.22;4953804;28;97056;-50
2023/04/22 09:48:08;;;;;;;2.00;1.90;;;;;;;25.71;35.96;100658.38;4958594;28;96852;-51
2023/04/22 09:50:33;;;;;;;2.20;2.00;;;;;;;25.79;36.57;100656.91;4957308;28;96907;-50
2023/04/22 09:53:11;;;;;;;3.10;1.90;;;;;;;25.87;36.27;100657.44;4955417;28;97495;-50
2023/04/22 09:55:40;;;;;;;3.40;2.00;;;;;;;25.97;35.87;100640.50;4955028;28;96855;-51
2023/04/22 09:58:17;;;;;;;1.73;1.63;;;;;;;26.03;36.13;100646.56;5010133;28;96878;-50
2023/04/22 10:00:54;;;;;;;2.30;2.07;;;;;;;26.12;35.23;100648.63;4997085;28;97344;-50
2023/04/22 10:03:20;;;;;;;1.83;1.60;;;;;;;26.17;35.91;100630.59;4992976;28;97130;-50
2023/04/22 10:05:46;;;;;;;1.90;1.70;;;;;;;26.30;35.64;100635.00;4994264;28;96853;-50
2023/04/22 10:08:13;;;;;;;1.70;1.60;;;;;;;26.37;35.31;100631.22;4993150;28;97128;-50
2023/04/22 10:10:39;;;;;;;1.50;1.40;;;;;;;26.47;35.46;100621.34;4998203;28;97243;-50
2023/04/22 10:13:05;;;;;;;2.70;1.43;;;;;;;26.53;35.78;100618.94;4992226;28;97429;-50
2023/04/22 10:15:33;;;;;;;2.10;1.70;;;;;;;26.60;35.63;100615.16;4991969;28;96757;-50
2023/04/22 10:17:59;;;;;;;2.37;1.83;;;;;;;26.64;35.51;100618.25;4993960;28;97197;-50
2023/04/22 10:20:27;;;;;;;1.90;1.80;;;;;;;26.67;35.03;100610.63;4994164;28;97350;-50
2023/04/22 10:22:55;;;;;;;1.63;1.50;;;;;;;26.62;34.70;100609.66;4990880;28;97826;-50
2023/04/22 10:25:22;;;;;;;1.67;1.57;;;;;;;26.58;34.95;100615.00;4996524;28;97418;-50
2023/04/22 10:28:04;;;;;;;1.93;1.13;;;;;;;26.51;34.21;100610.34;4996150;28;97042;-50
2023/04/22 10:30:35;;;;;;;2.10;1.90;;;;;;;26.47;34.99;100614.97;4994467;28;96684;-50
2023/04/22 10:33:19;;;;;;;1.67;1.30;;;;;;;26.43;33.74;100603.44;4992832;28;96802;-50
2023/04/22 10:36:13;;;;;;;2.10;1.40;;;;;;;26.43;34.22;100606.97;4994487;28;97088;-50
2023/04/22 10:39:01;;;;;;;1.20;1.10;;;;;;;26.47;33.39;100603.69;4993741;28;97195;-50
2023/04/22 10:41:33;;;;;;;1.47;1.37;;;;;;;26.63;33.61;100602.66;4994919;28;97700;-50
2023/04/22 10:44:05;;;;;;;1.43;1.33;;;;;;;26.74;34.54;100602.00;4994384;28;97391;-50
2023/04/22 10:46:35;;;;;;;1.63;1.53;;;;;;;26.97;34.38;100604.16;4992276;28;97318;-50
2023/04/22 10:49:09;;;;;;;3.03;1.70;;;;;;;27.24;32.60;100595.25;4994201;28;96857;-50
2023/04/22 10:51:57;;;;;;;1.43;1.33;;;;;;;27.46;32.74;100585.34;4993405;28;97584;-50
2023/04/22 10:54:25;;;;;;;1.13;1.10;;;;;;;27.71;33.15;100590.41;4978927;28;98864;-50
2023/04/22 10:57:03;;;;;;;1.80;1.50;;;;;;;27.72;31.71;100586.97;4994037;28;97579;-50
2023/04/22 10:59:29;;;;;;;1.60;1.50;;;;;;;27.61;33.19;100592.63;4993141;28;96976;-50
2023/04/22 11:02:00;;;;;;;1.80;1.70;;;;;;;27.43;32.69;100589.44;4991502;28;97404;-50
2023/04/22 11:04:25;;;;;;;1.93;1.83;;;;;;;27.28;33.23;100576.47;4995051;28;97327;-50
2023/04/22 11:07:25;;;;;;;2.40;1.43;;;;;;;27.08;32.53;100580.13;4997002;28;96733;-50
2023/04/22 11:09:57;;;;;;;1.50;1.37;;;;;;;26.99;33.39;100589.44;4979172;28;97093;-50
2023/04/22 11:12:36;;;;;;;1.50;1.40;;;;;;;26.93;32.52;100581.31;4984181;28;97138;-50
2023/04/22 11:15:09;;;;;;;1.63;1.50;;;;;;;27.10;33.04;100577.44;4978988;28;98260;-50
2023/04/22 11:17:36;;;;;;;5.40;1.70;;;;;;;27.41;33.17;100563.88;4979059;28;97222;-50
2023/04/22 11:20:03;;;;;;;1.03;0.93;;;;;;;27.51;32.79;100567.31;4979903;28;96773;-50
2023/04/22 11:22:34;;;;;;;2.07;1.97;;;;;;;27.64;31.80;100560.28;4981546;28;97184;-50